sensor_id;sensor_type;location;lat;lon;timestamp;P1;durP1;ratioP1;P2;durP2;ratioP2
4575;SDS011;2300;51.874;8.430;2023-04-01T00:01:03;112.37;;;106.90;;
4575;SDS011;2300;51.874;8.430;2023-04-01T00:03:31;110.37;;;105.33;;
4575;SDS011;2300;51.874;8.430;2023-04-01T00:05:59;105.80;;;101.10;;
4575;SDS011;2300;51.874;8.430;2023-04-01T00:08:27;86.67;;;82.60;;
4575;SDS011;2300;51.874;8.430;2023-04-01T00:10:54;103.80;;;98.90;;
4575;SDS011;2300;51.874;8.430;2023-04-01T00:13:22;94.50;;;90.23;;
4575;SDS011;2300;51.874;8.430;2023-04-01T00:15:50;103.03;;;98.33;;
4575;SDS011;2300;51.874;8.430;2023-04-01T00:18:17;123.17;;;117.40;;
4575;SDS011;2300;51.874;8.430;2023-04-01T00:20:44;105.33;;;100.67;;
4575;SDS011;2300;51.874;8.430;2023-04-01T00:23:12;106.87;;;101.93;;
4575;SDS011;2300;51.874;8.430;2023-04-01T00:25:39;107.77;;;102.90;;
4575;SDS011;2300;51.874;8.430;2023-04-01T00:28:05;82.80;;;79.00;;
4575;SDS011;2300;51.874;8.430;2023-04-01T00:30:32;74.10;;;70.67;;
4575;SDS011;2300;51.874;8.430;2023-04-01T00:32:58;92.13;;;87.97;;
4575;SDS011;2300;51.874;8.430;2023-04-01T00:35:25;106.60;;;101.87;;
4575;SDS011;2300;51.874;8.430;2023-04-01T00:37:51;75.57;;;72.07;;
4575;SDS011;2300;51.874;8.430;2023-04-01T00:40:24;89.27;;;85.17;;
4575;SDS011;2300;51.874;8.430;2023-04-01T00:42:53;78.70;;;75.17;;
4575;SDS011;2300;51.874;8.430;2023-04-01T00:45:25;83.83;;;79.97;;
4575;SDS011;2300;51.874;8.430;2023-04-01T00:47:56;96.00;;;91.73;;
4575;SDS011;2300;51.874;8.430;2023-04-01T00:50:26;94.87;;;90.57;;
4575;SDS011;2300;51.874;8.430;2023-04-01T00:52:57;85.27;;;81.43;;
4575;SDS011;2300;51.874;8.430;2023-04-01T00:55:26;95.67;;;91.27;;
4575;SDS011;2300;51.874;8.430;2023-04-01T00:57:55;70.27;;;66.97;;
4575;SDS011;2300;51.874;8.430;2023-04-01T01:00:24;72.33;;;69.07;;
4575;SDS011;2300;51.874;8.430;2023-04-01T01:02:51;63.83;;;60.73;;
4575;SDS011;2300;51.874;8.430;2023-04-01T01:05:18;69.73;;;66.60;;
4575;SDS011;2300;51.874;8.430;2023-04-01T01:07:55;66.97;;;63.90;;
4575;SDS011;2300;51.874;8.430;2023-04-01T01:10:31;64.97;;;62.07;;
4575;SDS011;2300;51.874;8.430;2023-04-01T01:13:01;82.70;;;78.97;;
4575;SDS011;2300;51.874;8.430;2023-04-01T01:15:35;82.77;;;79.00;;
4575;SDS011;2300;51.874;8.430;2023-04-01T01:18:09;73.63;;;70.30;;
4575;SDS011;2300;51.874;8.430;2023-04-01T01:20:49;66.33;;;62.97;;
4575;SDS011;2300;51.874;8.430;2023-04-01T01:23:47;75.50;;;72.07;;
4575;SDS011;2300;51.874;8.430;2023-04-01T01:26:39;69.70;;;66.50;;
4575;SDS011;2300;51.874;8.430;2023-04-01T01:29:29;79.10;;;75.57;;
4575;SDS011;2300;51.874;8.430;2023-04-01T01:32:06;86.13;;;82.27;;
4575;SDS011;2300;51.874;8.430;2023-04-01T01:34:44;73.73;;;70.23;;
4575;SDS011;2300;51.874;8.430;2023-04-01T01:37:22;84.40;;;80.60;;
4575;SDS011;2300;51.874;8.430;2023-04-01T01:39:52;98.00;;;93.50;;
4575;SDS011;2300;51.874;8.430;2023-04-01T01:42:22;92.73;;;88.43;;
4575;SDS011;2300;51.874;8.430;2023-04-01T01:44:52;115.63;;;110.50;;
4575;SDS011;2300;51.874;8.430;2023-04-01T01:47:21;120.27;;;114.90;;
4575;SDS011;2300;51.874;8.430;2023-04-01T01:49:49;101.17;;;96.77;;
4575;SDS011;2300;51.874;8.430;2023-04-01T01:52:19;103.70;;;99.07;;
4575;SDS011;2300;51.874;8.430;2023-04-01T01:54:48;97.73;;;93.43;;
4575;SDS011;2300;51.874;8.430;2023-04-01T01:57:15;90.33;;;86.27;;
4575;SDS011;2300;51.874;8.430;2023-04-01T01:59:43;91.13;;;86.70;;
4575;SDS011;2300;51.874;8.430;2023-04-01T02:02:14;91.90;;;87.70;;
4575;SDS011;2300;51.874;8.430;2023-04-01T02:04:41;84.33;;;80.60;;
4575;SDS011;2300;51.874;8.430;2023-04-01T02:07:11;95.40;;;91.07;;
4575;SDS011;2300;51.874;8.430;2023-04-01T02:09:42;112.70;;;107.77;;
4575;SDS011;2300;51.874;8.430;2023-04-01T02:12:10;95.37;;;90.93;;
4575;SDS011;2300;51.874;8.430;2023-04-01T02:14:42;121.97;;;116.63;;
4575;SDS011;2300;51.874;8.430;2023-04-01T02:17:12;100.63;;;96.20;;
4575;SDS011;2300;51.874;8.430;2023-04-01T02:19:44;85.23;;;81.47;;
4575;SDS011;2300;51.874;8.430;2023-04-01T02:22:16;78.40;;;74.90;;
4575;SDS011;2300;51.874;8.430;2023-04-01T02:24:46;87.27;;;83.43;;
4575;SDS011;2300;51.874;8.430;2023-04-01T02:27:16;83.63;;;80.00;;
4575;SDS011;2300;51.874;8.430;2023-04-01T02:29:42;98.93;;;94.43;;
4575;SDS011;2300;51.874;8.430;2023-04-01T02:32:09;102.97;;;98.47;;
4575;SDS011;2300;51.874;8.430;2023-04-01T02:34:36;83.23;;;79.57;;
4575;SDS011;2300;51.874;8.430;2023-04-01T02:37:03;102.70;;;97.87;;
4575;SDS011;2300;51.874;8.430;2023-04-01T02:39:29;79.00;;;75.50;;
4575;SDS011;2300;51.874;8.430;2023-04-01T02:41:56;74.87;;;71.37;;
4575;SDS011;2300;51.874;8.430;2023-04-01T02:44:24;74.13;;;70.93;;
4575;SDS011;2300;51.874;8.430;2023-04-01T02:46:50;72.03;;;68.83;;
4575;SDS011;2300;51.874;8.430;2023-04-01T02:49:17;85.67;;;81.97;;
4575;SDS011;2300;51.874;8.430;2023-04-01T02:51:44;69.23;;;66.03;;
4575;SDS011;2300;51.874;8.430;2023-04-01T02:54:10;76.37;;;72.87;;
4575;SDS011;2300;51.874;8.430;2023-04-01T02:56:37;80.40;;;76.77;;
4575;SDS011;2300;51.874;8.430;2023-04-01T02:59:03;101.33;;;96.83;;
4575;SDS011;2300;51.874;8.430;2023-04-01T03:01:31;92.20;;;88.03;;
4575;SDS011;2300;51.874;8.430;2023-04-01T03:03:57;82.00;;;78.40;;
4575;SDS011;2300;51.874;8.430;2023-04-01T03:06:24;84.77;;;81.10;;
4575;SDS011;2300;51.874;8.430;2023-04-01T03:08:50;98.20;;;93.97;;
4575;SDS011;2300;51.874;8.430;2023-04-01T03:11:17;79.17;;;75.67;;
4575;SDS011;2300;51.874;8.430;2023-04-01T03:13:43;70.67;;;67.17;;
4575;SDS011;2300;51.874;8.430;2023-04-01T03:16:10;91.40;;;87.47;;
4575;SDS011;2300;51.874;8.430;2023-04-01T03:18:38;82.10;;;78.40;;
4575;SDS011;2300;51.874;8.430;2023-04-01T03:21:14;111.37;;;106.23;;
4575;SDS011;2300;51.874;8.430;2023-04-01T03:23:41;104.43;;;99.80;;
4575;SDS011;2300;51.874;8.430;2023-04-01T03:26:07;87.70;;;83.90;;
4575;SDS011;2300;51.874;8.430;2023-04-01T03:28:34;90.23;;;86.23;;
4575;SDS011;2300;51.874;8.430;2023-04-01T03:31:00;104.17;;;99.67;;
4575;SDS011;2300;51.874;8.430;2023-04-01T03:33:27;112.87;;;107.77;;
4575;SDS011;2300;51.874;8.430;2023-04-01T03:35:55;100.33;;;95.97;;
4575;SDS011;2300;51.874;8.430;2023-04-01T03:38:21;104.53;;;99.90;;
4575;SDS011;2300;51.874;8.430;2023-04-01T03:40:48;110.87;;;105.90;;
4575;SDS011;2300;51.874;8.430;2023-04-01T03:43:14;111.67;;;106.77;;
4575;SDS011;2300;51.874;8.430;2023-04-01T03:45:43;119.73;;;114.43;;
4575;SDS011;2300;51.874;8.430;2023-04-01T03:48:10;117.33;;;112.03;;
4575;SDS011;2300;51.874;8.430;2023-04-01T03:50:36;118.67;;;113.43;;
4575;SDS011;2300;51.874;8.430;2023-04-01T03:53:04;130.50;;;124.70;;
4575;SDS011;2300;51.874;8.430;2023-04-01T03:55:31;122.87;;;117.47;;
4575;SDS011;2300;51.874;8.430;2023-04-01T03:57:57;127.10;;;121.50;;
4575;SDS011;2300;51.874;8.430;2023-04-01T04:00:24;113.90;;;108.90;;
4575;SDS011;2300;51.874;8.430;2023-04-01T04:02:51;117.70;;;112.50;;
4575;SDS011;2300;51.874;8.430;2023-04-01T04:05:17;104.93;;;100.13;;
4575;SDS011;2300;51.874;8.430;2023-04-01T04:07:43;112.10;;;107.20;;
4575;SDS011;2300;51.874;8.430;2023-04-01T04:10:11;101.93;;;97.43;;
4575;SDS011;2300;51.874;8.430;2023-04-01T04:12:38;101.73;;;97.33;;
4575;SDS011;2300;51.874;8.430;2023-04-01T04:15:05;108.77;;;103.97;;
4575;SDS011;2300;51.874;8.430;2023-04-01T04:17:33;106.07;;;101.33;;
4575;SDS011;2300;51.874;8.430;2023-04-01T04:20:00;104.13;;;99.63;;
4575;SDS011;2300;51.874;8.430;2023-04-01T04:22:27;108.17;;;103.40;;
4575;SDS011;2300;51.874;8.430;2023-04-01T04:24:53;114.13;;;109.17;;
4575;SDS011;2300;51.874;8.430;2023-04-01T04:27:21;142.17;;;135.60;;
4575;SDS011;2300;51.874;8.430;2023-04-01T04:29:47;141.53;;;135.23;;
4575;SDS011;2300;51.874;8.430;2023-04-01T04:32:14;118.70;;;113.37;;
4575;SDS011;2300;51.874;8.430;2023-04-01T04:34:40;137.00;;;131.10;;
4575;SDS011;2300;51.874;8.430;2023-04-01T04:37:07;141.83;;;135.60;;
4575;SDS011;2300;51.874;8.430;2023-04-01T04:39:33;134.50;;;128.67;;
4575;SDS011;2300;51.874;8.430;2023-04-01T04:41:59;121.97;;;116.67;;
4575;SDS011;2300;51.874;8.430;2023-04-01T04:44:27;127.90;;;122.37;;
4575;SDS011;2300;51.874;8.430;2023-04-01T04:46:54;123.07;;;117.77;;
4575;SDS011;2300;51.874;8.430;2023-04-01T04:49:20;116.50;;;111.30;;
4575;SDS011;2300;51.874;8.430;2023-04-01T04:51:47;130.90;;;125.03;;
4575;SDS011;2300;51.874;8.430;2023-04-01T04:54:13;120.90;;;115.50;;
4575;SDS011;2300;51.874;8.430;2023-04-01T04:56:40;127.33;;;121.83;;
4575;SDS011;2300;51.874;8.430;2023-04-01T04:59:06;111.67;;;106.83;;
4575;SDS011;2300;51.874;8.430;2023-04-01T05:01:34;117.73;;;112.63;;
4575;SDS011;2300;51.874;8.430;2023-04-01T05:04:01;117.17;;;112.07;;
4575;SDS011;2300;51.874;8.430;2023-04-01T05:06:27;123.23;;;117.83;;
4575;SDS011;2300;51.874;8.430;2023-04-01T05:08:54;127.57;;;122.07;;
4575;SDS011;2300;51.874;8.430;2023-04-01T05:11:21;118.87;;;113.70;;
4575;SDS011;2300;51.874;8.430;2023-04-01T05:13:48;119.57;;;114.20;;
4575;SDS011;2300;51.874;8.430;2023-04-01T05:16:15;126.70;;;121.13;;
4575;SDS011;2300;51.874;8.430;2023-04-01T05:18:44;118.47;;;113.27;;
4575;SDS011;2300;51.874;8.430;2023-04-01T05:21:11;105.50;;;100.93;;
4575;SDS011;2300;51.874;8.430;2023-04-01T05:23:39;110.07;;;105.13;;
4575;SDS011;2300;51.874;8.430;2023-04-01T05:26:06;108.43;;;103.73;;
4575;SDS011;2300;51.874;8.430;2023-04-01T05:28:35;119.93;;;114.57;;
4575;SDS011;2300;51.874;8.430;2023-04-01T05:31:03;115.50;;;110.47;;
4575;SDS011;2300;51.874;8.430;2023-04-01T05:33:30;124.73;;;119.13;;
4575;SDS011;2300;51.874;8.430;2023-04-01T05:36:04;117.33;;;112.13;;
4575;SDS011;2300;51.874;8.430;2023-04-01T05:38:31;124.67;;;119.17;;
4575;SDS011;2300;51.874;8.430;2023-04-01T05:40:58;117.83;;;112.70;;
4575;SDS011;2300;51.874;8.430;2023-04-01T05:43:25;113.30;;;108.23;;
4575;SDS011;2300;51.874;8.430;2023-04-01T05:45:51;117.43;;;112.23;;
4575;SDS011;2300;51.874;8.430;2023-04-01T05:48:18;113.90;;;108.90;;
4575;SDS011;2300;51.874;8.430;2023-04-01T05:50:44;128.13;;;122.57;;
4575;SDS011;2300;51.874;8.430;2023-04-01T05:53:12;155.60;;;148.67;;
4575;SDS011;2300;51.874;8.430;2023-04-01T05:55:39;143.70;;;136.87;;
4575;SDS011;2300;51.874;8.430;2023-04-01T05:58:05;134.23;;;128.33;;
4575;SDS011;2300;51.874;8.430;2023-04-01T06:00:32;112.27;;;107.27;;
4575;SDS011;2300;51.874;8.430;2023-04-01T06:02:58;130.10;;;124.40;;
4575;SDS011;2300;51.874;8.430;2023-04-01T06:05:27;131.07;;;125.33;;
4575;SDS011;2300;51.874;8.430;2023-04-01T06:07:55;141.57;;;135.13;;
4575;SDS011;2300;51.874;8.430;2023-04-01T06:10:29;128.33;;;122.67;;
4575;SDS011;2300;51.874;8.430;2023-04-01T06:13:06;116.67;;;111.67;;
4575;SDS011;2300;51.874;8.430;2023-04-01T06:15:36;120.33;;;115.03;;
4575;SDS011;2300;51.874;8.430;2023-04-01T06:18:30;118.97;;;113.87;;
4575;SDS011;2300;51.874;8.430;2023-04-01T06:21:21;131.00;;;125.20;;
4575;SDS011;2300;51.874;8.430;2023-04-01T06:24:00;118.90;;;113.60;;
4575;SDS011;2300;51.874;8.430;2023-04-01T06:26:41;136.23;;;130.27;;
4575;SDS011;2300;51.874;8.430;2023-04-01T06:29:20;122.43;;;117.13;;
4575;SDS011;2300;51.874;8.430;2023-04-01T06:32:09;116.37;;;111.27;;
4575;SDS011;2300;51.874;8.430;2023-04-01T06:35:02;125.60;;;120.03;;
4575;SDS011;2300;51.874;8.430;2023-04-01T06:37:50;130.10;;;124.30;;
4575;SDS011;2300;51.874;8.430;2023-04-01T06:40:34;124.40;;;119.00;;
4575;SDS011;2300;51.874;8.430;2023-04-01T06:43:15;121.43;;;116.07;;
4575;SDS011;2300;51.874;8.430;2023-04-01T06:45:49;122.70;;;117.30;;
4575;SDS011;2300;51.874;8.430;2023-04-01T06:48:26;126.30;;;120.50;;
4575;SDS011;2300;51.874;8.430;2023-04-01T06:51:07;125.20;;;119.77;;
4575;SDS011;2300;51.874;8.430;2023-04-01T06:53:47;123.73;;;118.27;;
4575;SDS011;2300;51.874;8.430;2023-04-01T06:56:20;120.10;;;114.80;;
4575;SDS011;2300;51.874;8.430;2023-04-01T06:58:54;121.60;;;116.30;;
4575;SDS011;2300;51.874;8.430;2023-04-01T07:01:26;115.70;;;110.60;;
4575;SDS011;2300;51.874;8.430;2023-04-01T07:03:57;115.70;;;110.63;;
4575;SDS011;2300;51.874;8.430;2023-04-01T07:06:29;112.93;;;107.97;;
4575;SDS011;2300;51.874;8.430;2023-04-01T07:08:58;118.10;;;112.93;;
4575;SDS011;2300;51.874;8.430;2023-04-01T07:11:29;115.40;;;110.30;;
4575;SDS011;2300;51.874;8.430;2023-04-01T07:14:00;120.80;;;115.30;;
4575;SDS011;2300;51.874;8.430;2023-04-01T07:16:30;106.43;;;101.70;;
4575;SDS011;2300;51.874;8.430;2023-04-01T07:19:00;121.80;;;116.53;;
4575;SDS011;2300;51.874;8.430;2023-04-01T07:21:32;139.80;;;133.67;;
4575;SDS011;2300;51.874;8.430;2023-04-01T07:24:04;135.70;;;129.57;;
4575;SDS011;2300;51.874;8.430;2023-04-01T07:26:35;151.30;;;144.40;;
4575;SDS011;2300;51.874;8.430;2023-04-01T07:29:04;100.40;;;96.00;;
4575;SDS011;2300;51.874;8.430;2023-04-01T07:31:37;138.97;;;132.63;;
4575;SDS011;2300;51.874;8.430;2023-04-01T07:34:19;118.10;;;112.73;;
4575;SDS011;2300;51.874;8.430;2023-04-01T07:36:52;130.93;;;125.23;;
4575;SDS011;2300;51.874;8.430;2023-04-01T07:39:28;146.53;;;140.13;;
4575;SDS011;2300;51.874;8.430;2023-04-01T07:42:05;120.77;;;115.43;;
4575;SDS011;2300;51.874;8.430;2023-04-01T07:44:43;98.70;;;94.30;;
4575;SDS011;2300;51.874;8.430;2023-04-01T07:47:21;115.87;;;110.77;;
4575;SDS011;2300;51.874;8.430;2023-04-01T07:50:02;129.50;;;123.60;;
4575;SDS011;2300;51.874;8.430;2023-04-01T07:52:39;142.10;;;135.80;;
4575;SDS011;2300;51.874;8.430;2023-04-01T07:55:14;102.07;;;97.53;;
4575;SDS011;2300;51.874;8.430;2023-04-01T07:57:48;106.07;;;101.47;;
4575;SDS011;2300;51.874;8.430;2023-04-01T08:00:24;139.63;;;133.50;;
4575;SDS011;2300;51.874;8.430;2023-04-01T08:02:58;72.47;;;69.27;;
4575;SDS011;2300;51.874;8.430;2023-04-01T08:05:39;81.43;;;77.77;;
4575;SDS011;2300;51.874;8.430;2023-04-01T08:08:09;86.80;;;83.03;;
4575;SDS011;2300;51.874;8.430;2023-04-01T08:10:44;96.57;;;92.37;;
4575;SDS011;2300;51.874;8.430;2023-04-01T08:13:17;90.80;;;86.80;;
4575;SDS011;2300;51.874;8.430;2023-04-01T08:15:53;112.07;;;107.17;;
4575;SDS011;2300;51.874;8.430;2023-04-01T08:18:29;80.03;;;76.53;;
4575;SDS011;2300;51.874;8.430;2023-04-01T08:21:03;80.83;;;77.20;;
4575;SDS011;2300;51.874;8.430;2023-04-01T08:23:36;75.53;;;72.17;;
4575;SDS011;2300;51.874;8.430;2023-04-01T08:26:10;87.27;;;83.43;;
4575;SDS011;2300;51.874;8.430;2023-04-01T08:28:42;89.60;;;85.70;;
4575;SDS011;2300;51.874;8.430;2023-04-01T08:31:13;73.57;;;70.30;;
4575;SDS011;2300;51.874;8.430;2023-04-01T08:33:46;79.10;;;75.60;;
4575;SDS011;2300;51.874;8.430;2023-04-01T08:36:13;74.73;;;71.40;;
4575;SDS011;2300;51.874;8.430;2023-04-01T08:38:43;63.00;;;60.27;;
4575;SDS011;2300;51.874;8.430;2023-04-01T08:41:16;67.07;;;64.07;;
4575;SDS011;2300;51.874;8.430;2023-04-01T08:43:57;64.60;;;61.80;;
4575;SDS011;2300;51.874;8.430;2023-04-01T08:52:30;59.90;;;57.27;;
4575;SDS011;2300;51.874;8.430;2023-04-01T08:55:15;62.10;;;59.37;;
4575;SDS011;2300;51.874;8.430;2023-04-01T08:58:05;79.83;;;76.20;;
4575;SDS011;2300;51.874;8.430;2023-04-01T09:00:47;72.93;;;69.67;;
4575;SDS011;2300;51.874;8.430;2023-04-01T09:06:35;82.87;;;79.27;;
4575;SDS011;2300;51.874;8.430;2023-04-01T09:12:12;91.50;;;87.57;;
4575;SDS011;2300;51.874;8.430;2023-04-01T09:14:57;95.40;;;91.23;;
4575;SDS011;2300;51.874;8.430;2023-04-01T09:21:02;114.83;;;109.83;;
4575;SDS011;2300;51.874;8.430;2023-04-01T09:23:43;95.23;;;91.13;;
4575;SDS011;2300;51.874;8.430;2023-04-01T09:26:28;93.67;;;89.60;;
4575;SDS011;2300;51.874;8.430;2023-04-01T09:29:05;75.07;;;71.73;;
4575;SDS011;2300;51.874;8.430;2023-04-01T09:31:49;76.67;;;73.33;;
4575;SDS011;2300;51.874;8.430;2023-04-01T09:34:30;81.47;;;77.87;;
4575;SDS011;2300;51.874;8.430;2023-04-01T09:37:19;71.13;;;68.03;;
4575;SDS011;2300;51.874;8.430;2023-04-01T09:42:43;74.00;;;70.83;;
4575;SDS011;2300;51.874;8.430;2023-04-01T09:45:16;73.70;;;70.40;;
4575;SDS011;2300;51.874;8.430;2023-04-01T09:47:58;87.07;;;83.27;;
4575;SDS011;2300;51.874;8.430;2023-04-01T09:50:33;103.20;;;98.70;;
4575;SDS011;2300;51.874;8.430;2023-04-01T09:53:14;86.17;;;82.47;;
4575;SDS011;2300;51.874;8.430;2023-04-01T09:59:21;104.97;;;100.27;;
4575;SDS011;2300;51.874;8.430;2023-04-01T10:08:15;83.83;;;80.20;;
4575;SDS011;2300;51.874;8.430;2023-04-01T10:11:10;90.63;;;86.63;;
4575;SDS011;2300;51.874;8.430;2023-04-01T10:13:52;81.03;;;77.53;;
4575;SDS011;2300;51.874;8.430;2023-04-01T10:16:54;81.40;;;77.90;;
4575;SDS011;2300;51.874;8.430;2023-04-01T10:22:39;88.10;;;84.17;;
4575;SDS011;2300;51.874;8.430;2023-04-01T10:25:30;78.63;;;75.23;;
4575;SDS011;2300;51.874;8.430;2023-04-01T10:28:14;62.33;;;59.50;;
4575;SDS011;2300;51.874;8.430;2023-04-01T10:31:03;65.77;;;62.90;;
4575;SDS011;2300;51.874;8.430;2023-04-01T10:33:54;56.13;;;53.47;;
4575;SDS011;2300;51.874;8.430;2023-04-01T10:36:47;63.00;;;60.20;;
4575;SDS011;2300;51.874;8.430;2023-04-01T10:42:39;54.90;;;52.37;;
4575;SDS011;2300;51.874;8.430;2023-04-01T10:45:33;67.87;;;64.87;;
4575;SDS011;2300;51.874;8.430;2023-04-01T10:48:21;98.18;;;93.90;;
4575;SDS011;2300;51.874;8.430;2023-04-01T10:51:01;88.53;;;84.70;;
4575;SDS011;2300;51.874;8.430;2023-04-01T10:56:43;73.73;;;70.50;;
4575;SDS011;2300;51.874;8.430;2023-04-01T11:02:33;81.37;;;77.80;;
4575;SDS011;2300;51.874;8.430;2023-04-01T11:11:54;88.67;;;84.77;;
4575;SDS011;2300;51.874;8.430;2023-04-01T11:14:54;97.70;;;93.50;;
4575;SDS011;2300;51.874;8.430;2023-04-01T11:21:03;85.97;;;82.07;;
4575;SDS011;2300;51.874;8.430;2023-04-01T11:23:48;97.40;;;93.17;;
4575;SDS011;2300;51.874;8.430;2023-04-01T11:26:21;102.63;;;98.23;;
4575;SDS011;2300;51.874;8.430;2023-04-01T11:32:04;86.27;;;82.47;;
4575;SDS011;2300;51.874;8.430;2023-04-01T11:34:49;91.37;;;87.43;;
4575;SDS011;2300;51.874;8.430;2023-04-01T11:37:29;74.90;;;71.67;;
4575;SDS011;2300;51.874;8.430;2023-04-01T11:40:05;109.83;;;105.10;;
4575;SDS011;2300;51.874;8.430;2023-04-01T11:42:41;94.50;;;90.40;;
4575;SDS011;2300;51.874;8.430;2023-04-01T11:45:16;104.07;;;99.63;;
4575;SDS011;2300;51.874;8.430;2023-04-01T11:53:37;99.57;;;95.20;;
4575;SDS011;2300;51.874;8.430;2023-04-01T11:56:20;107.23;;;102.60;;
4575;SDS011;2300;51.874;8.430;2023-04-01T12:02:06;109.13;;;104.43;;
4575;SDS011;2300;51.874;8.430;2023-04-01T12:04:43;118.87;;;113.73;;
4575;SDS011;2300;51.874;8.430;2023-04-01T12:07:39;84.87;;;81.17;;
4575;SDS011;2300;51.874;8.430;2023-04-01T12:10:28;81.20;;;77.60;;
4575;SDS011;2300;51.874;8.430;2023-04-01T12:13:04;93.60;;;89.50;;
4575;SDS011;2300;51.874;8.430;2023-04-01T12:15:43;103.20;;;98.67;;
4575;SDS011;2300;51.874;8.430;2023-04-01T12:18:20;112.50;;;107.43;;
4575;SDS011;2300;51.874;8.430;2023-04-01T12:20:56;119.13;;;113.93;;
4575;SDS011;2300;51.874;8.430;2023-04-01T12:23:32;123.67;;;118.23;;
4575;SDS011;2300;51.874;8.430;2023-04-01T12:26:24;115.90;;;110.77;;
4575;SDS011;2300;51.874;8.430;2023-04-01T12:29:13;124.37;;;118.87;;
4575;SDS011;2300;51.874;8.430;2023-04-01T12:31:52;115.70;;;110.53;;
4575;SDS011;2300;51.874;8.430;2023-04-01T12:34:29;93.03;;;88.83;;
4575;SDS011;2300;51.874;8.430;2023-04-01T12:37:16;86.90;;;82.90;;
4575;SDS011;2300;51.874;8.430;2023-04-01T12:39:52;107.17;;;102.47;;
4575;SDS011;2300;51.874;8.430;2023-04-01T12:42:33;95.33;;;91.17;;
4575;SDS011;2300;51.874;8.430;2023-04-01T12:45:19;80.27;;;76.70;;
4575;SDS011;2300;51.874;8.430;2023-04-01T12:48:03;122.33;;;116.80;;
4575;SDS011;2300;51.874;8.430;2023-04-01T12:50:57;91.73;;;87.67;;
4575;SDS011;2300;51.874;8.430;2023-04-01T12:53:48;103.67;;;99.07;;
4575;SDS011;2300;51.874;8.430;2023-04-01T12:56:38;126.83;;;121.23;;
4575;SDS011;2300;51.874;8.430;2023-04-01T13:02:11;100.20;;;95.73;;
4575;SDS011;2300;51.874;8.430;2023-04-01T13:04:48;104.93;;;100.20;;
4575;SDS011;2300;51.874;8.430;2023-04-01T13:07:33;103.33;;;98.63;;
4575;SDS011;2300;51.874;8.430;2023-04-01T13:10:13;104.73;;;99.90;;
4575;SDS011;2300;51.874;8.430;2023-04-01T13:12:57;87.93;;;83.83;;
4575;SDS011;2300;51.874;8.430;2023-04-01T13:15:35;100.83;;;96.07;;
4575;SDS011;2300;51.874;8.430;2023-04-01T13:18:11;126.83;;;121.10;;
4575;SDS011;2300;51.874;8.430;2023-04-01T13:20:48;103.77;;;99.07;;
4575;SDS011;2300;51.874;8.430;2023-04-01T13:23:25;89.73;;;85.60;;
4575;SDS011;2300;51.874;8.430;2023-04-01T13:26:11;85.97;;;82.07;;
4575;SDS011;2300;51.874;8.430;2023-04-01T13:28:46;101.57;;;96.80;;
4575;SDS011;2300;51.874;8.430;2023-04-01T13:31:22;87.00;;;83.00;;
4575;SDS011;2300;51.874;8.430;2023-04-01T13:33:58;94.83;;;90.50;;
4575;SDS011;2300;51.874;8.430;2023-04-01T13:36:36;90.63;;;86.53;;
4575;SDS011;2300;51.874;8.430;2023-04-01T13:39:18;103.60;;;99.00;;
4575;SDS011;2300;51.874;8.430;2023-04-01T13:42:01;88.90;;;84.95;;
4575;SDS011;2300;51.874;8.430;2023-04-01T13:44:39;79.33;;;75.73;;
4575;SDS011;2300;51.874;8.430;2023-04-01T13:50:23;88.83;;;84.77;;
4575;SDS011;2300;51.874;8.430;2023-04-01T13:55:53;89.90;;;85.72;;
4575;SDS011;2300;51.874;8.430;2023-04-01T13:58:49;113.40;;;108.37;;
4575;SDS011;2300;51.874;8.430;2023-04-01T14:01:26;92.40;;;88.13;;
4575;SDS011;2300;51.874;8.430;2023-04-01T14:04:15;105.80;;;101.07;;
4575;SDS011;2300;51.874;8.430;2023-04-01T14:06:59;117.27;;;111.87;;
4575;SDS011;2300;51.874;8.430;2023-04-01T14:09:36;124.93;;;119.27;;
4575;SDS011;2300;51.874;8.430;2023-04-01T14:12:26;108.60;;;103.43;;
4575;SDS011;2300;51.874;8.430;2023-04-01T14:15:05;116.70;;;111.47;;
4575;SDS011;2300;51.874;8.430;2023-04-01T14:17:50;139.20;;;133.00;;
4575;SDS011;2300;51.874;8.430;2023-04-01T14:20:25;110.67;;;105.70;;
4575;SDS011;2300;51.874;8.430;2023-04-01T14:23:00;122.53;;;117.07;;
4575;SDS011;2300;51.874;8.430;2023-04-01T14:25:41;103.67;;;98.90;;
4575;SDS011;2300;51.874;8.430;2023-04-01T14:28:25;109.50;;;104.57;;
4575;SDS011;2300;51.874;8.430;2023-04-01T14:31:09;111.35;;;106.35;;
4575;SDS011;2300;51.874;8.430;2023-04-01T14:33:49;113.87;;;108.67;;
4575;SDS011;2300;51.874;8.430;2023-04-01T14:36:28;104.63;;;99.93;;
4575;SDS011;2300;51.874;8.430;2023-04-01T14:39:12;121.72;;;116.20;;
4575;SDS011;2300;51.874;8.430;2023-04-01T14:41:48;119.27;;;113.87;;
4575;SDS011;2300;51.874;8.430;2023-04-01T14:44:33;121.63;;;116.07;;
4575;SDS011;2300;51.874;8.430;2023-04-01T14:47:34;117.47;;;112.03;;
4575;SDS011;2300;51.874;8.430;2023-04-01T14:50:11;125.67;;;120.07;;
4575;SDS011;2300;51.874;8.430;2023-04-01T14:52:42;114.40;;;109.33;;
4575;SDS011;2300;51.874;8.430;2023-04-01T14:55:20;126.37;;;120.67;;
4575;SDS011;2300;51.874;8.430;2023-04-01T14:58:04;115.13;;;109.97;;
4575;SDS011;2300;51.874;8.430;2023-04-01T15:00:50;120.67;;;115.13;;
4575;SDS011;2300;51.874;8.430;2023-04-01T15:03:28;127.50;;;121.63;;
4575;SDS011;2300;51.874;8.430;2023-04-01T15:06:08;139.37;;;133.10;;
4575;SDS011;2300;51.874;8.430;2023-04-01T15:08:49;137.27;;;131.07;;
4575;SDS011;2300;51.874;8.430;2023-04-01T15:11:23;117.67;;;112.40;;
4575;SDS011;2300;51.874;8.430;2023-04-01T15:16:55;118.80;;;113.40;;
4575;SDS011;2300;51.874;8.430;2023-04-01T15:19:35;128.93;;;123.03;;
4575;SDS011;2300;51.874;8.430;2023-04-01T15:22:15;142.20;;;135.60;;
4575;SDS011;2300;51.874;8.430;2023-04-01T15:24:57;120.20;;;114.63;;
4575;SDS011;2300;51.874;8.430;2023-04-01T15:27:41;118.47;;;113.07;;
4575;SDS011;2300;51.874;8.430;2023-04-01T15:33:01;139.40;;;133.03;;
4575;SDS011;2300;51.874;8.430;2023-04-01T15:35:46;147.70;;;140.93;;
4575;SDS011;2300;51.874;8.430;2023-04-01T15:38:24;139.63;;;132.90;;
4575;SDS011;2300;51.874;8.430;2023-04-01T15:41:02;154.20;;;146.93;;
4575;SDS011;2300;51.874;8.430;2023-04-01T15:43:37;150.10;;;143.10;;
4575;SDS011;2300;51.874;8.430;2023-04-01T15:46:21;150.10;;;143.10;;
4575;SDS011;2300;51.874;8.430;2023-04-01T15:49:04;153.83;;;146.83;;
4575;SDS011;2300;51.874;8.430;2023-04-01T15:57:48;150.67;;;143.53;;
4575;SDS011;2300;51.874;8.430;2023-04-01T16:00:27;150.37;;;143.13;;
4575;SDS011;2300;51.874;8.430;2023-04-01T16:03:08;154.93;;;147.70;;
4575;SDS011;2300;51.874;8.430;2023-04-01T16:05:52;146.60;;;139.40;;
4575;SDS011;2300;51.874;8.430;2023-04-01T16:11:35;148.03;;;140.87;;
4575;SDS011;2300;51.874;8.430;2023-04-01T16:14:32;143.63;;;136.97;;
4575;SDS011;2300;51.874;8.430;2023-04-01T16:17:14;145.67;;;138.70;;
4575;SDS011;2300;51.874;8.430;2023-04-01T16:19:53;149.37;;;142.43;;
4575;SDS011;2300;51.874;8.430;2023-04-01T16:22:25;135.73;;;129.40;;
4575;SDS011;2300;51.874;8.430;2023-04-01T16:25:01;263.13;;;250.30;;
4575;SDS011;2300;51.874;8.430;2023-04-01T16:27:45;131.73;;;125.37;;
4575;SDS011;2300;51.874;8.430;2023-04-01T16:30:32;153.07;;;145.10;;
4575;SDS011;2300;51.874;8.430;2023-04-01T16:33:02;152.83;;;144.67;;
4575;SDS011;2300;51.874;8.430;2023-04-01T16:35:36;142.40;;;135.43;;
4575;SDS011;2300;51.874;8.430;2023-04-01T16:38:12;150.67;;;143.37;;
4575;SDS011;2300;51.874;8.430;2023-04-01T16:40:50;143.53;;;136.73;;
4575;SDS011;2300;51.874;8.430;2023-04-01T16:43:28;146.43;;;139.50;;
4575;SDS011;2300;51.874;8.430;2023-04-01T16:46:26;147.93;;;140.90;;